Time;durP1;ratioP1;P1;durP2;ratioP2;P2;SDS_P1;SDS_P2;PMS_P1;PMS_P2;Temp;Humidity;BMP_temperature;BMP_pressure;BME280_temperature;BME280_humidity;BME280_pressure;Samples;Min_cycle;Max_cycle;Signal;HPM_P1;HPM_P2
2022/03/26 00:02:18;;;;;;;11.98;10.88;;;21.20;42.90;;;;;;5003096;27;44077;-59
2022/03/26 00:04:46;;;;;;;12.77;11.43;;;21.20;42.90;;;;;;5009443;27;43476;-60
2022/03/26 00:07:13;;;;;;;11.70;10.60;;;21.20;42.90;;;;;;5012580;27;43414;-60
2022/03/26 00:09:41;;;;;;;12.13;10.93;;;21.20;42.90;;;;;;5009723;27;43631;-60
2022/03/26 00:12:08;;;;;;;11.35;10.25;;;21.20;42.90;;;;;;5004907;27;44068;-59
2022/03/26 00:14:36;;;;;;;11.02;10.00;;;21.20;42.90;;;;;;5023360;27;43457;-59
2022/03/26 00:17:04;;;;;;;11.55;10.43;;;21.10;42.90;;;;;;5017533;27;43460;-59
2022/03/26 00:19:32;;;;;;;12.23;11.02;;;21.10;42.90;;;;;;5003961;27;43588;-59
2022/03/26 00:21:59;;;;;;;12.13;10.93;;;21.10;42.90;;;;;;5005290;27;44957;-59
2022/03/26 00:24:27;;;;;;;11.70;10.43;;;21.10;42.90;;;;;;5000778;27;43997;-60
2022/03/26 00:26:54;;;;;;;11.73;10.63;;;21.10;42.90;;;;;;5012395;27;43514;-59
2022/03/26 00:29:22;;;;;;;11.65;10.55;;;21.10;42.90;;;;;;5015111;27;43619;-59
2022/03/26 00:31:49;;;;;;;11.57;10.48;;;21.10;43.60;;;;;;5005136;27;44039;-59
2022/03/26 00:34:18;;;;;;;11.35;10.23;;;21.10;42.90;;;;;;5008259;27;43984;-59
2022/03/26 00:36:45;;;;;;;11.68;10.57;;;21.10;42.90;;;;;;5004715;27;43464;-59
2022/03/26 00:39:13;;;;;;;11.18;10.18;;;21.10;43.00;;;;;;5013622;27;43584;-59
2022/03/26 00:41:41;;;;;;;11.63;10.48;;;21.00;42.90;;;;;;5039508;27;44934;-59
2022/03/26 00:44:08;;;;;;;13.05;11.75;;;21.00;42.90;;;;;;5013812;27;43501;-60
2022/03/26 00:46:36;;;;;;;10.93;9.88;;;21.00;43.00;;;;;;5000411;27;44046;-60
2022/03/26 00:49:04;;;;;;;11.57;10.48;;;21.00;42.90;;;;;;5013207;27;43454;-60
2022/03/26 00:51:31;;;;;;;11.88;10.77;;;21.00;43.00;;;;;;5010921;27;44033;-59
2022/03/26 00:53:59;;;;;;;10.52;9.52;;;21.00;43.00;;;;;;5008542;27;43976;-59
2022/03/26 00:56:27;;;;;;;10.88;9.88;;;20.90;42.90;;;;;;5016777;27;43453;-59
2022/03/26 00:58:54;;;;;;;11.32;10.25;;;20.90;42.90;;;;;;5016312;27;43646;-59
2022/03/26 01:01:21;;;;;;;11.02;9.93;;;20.90;42.90;;;;;;5015251;27;44444;-60
2022/03/26 01:03:49;;;;;;;10.60;9.60;;;20.90;42.80;;;;;;5005084;27;43460;-59
2022/03/26 01:06:18;;;;;;;10.73;9.63;;;20.90;42.90;;;;;;5017179;27;43463;-59
2022/03/26 01:08:46;;;;;;;11.38;10.27;;;20.90;42.90;;;;;;5014723;27;43642;-59
2022/03/26 01:11:14;;;;;;;10.85;9.85;;;20.90;42.90;;;;;;5001138;27;46334;-60
2022/03/26 01:13:41;;;;;;;10.80;9.73;;;20.90;42.90;;;;;;5000954;27;43507;-60
2022/03/26 01:16:09;;;;;;;11.15;10.05;;;20.90;42.90;;;;;;5000583;27;43466;-59
2022/03/26 01:18:36;;;;;;;10.80;9.80;;;20.90;42.90;;;;;;5014184;27;43458;-59
2022/03/26 01:21:04;;;;;;;11.10;10.02;;;20.90;43.00;;;;;;5009736;27;44383;-60
2022/03/26 01:23:32;;;;;;;10.63;9.63;;;20.90;43.00;;;;;;5010955;27;43529;-59
2022/03/26 01:26:00;;;;;;;11.07;10.07;;;20.80;42.90;;;;;;5018322;27;43556;-59
2022/03/26 01:28:30;;;;;;;10.98;9.88;;;20.80;42.90;;;;;;5013372;27;43473;-60
2022/03/26 01:31:00;;;;;;;11.13;9.98;;;20.80;42.90;;;;;;5006084;27;44997;-59
2022/03/26 01:33:28;;;;;;;10.83;9.80;;;20.80;42.90;;;;;;5009051;27;43479;-59
2022/03/26 01:35:56;;;;;;;10.70;9.60;;;20.80;43.00;;;;;;5022161;27;43476;-60
2022/03/26 01:38:23;;;;;;;11.38;10.27;;;20.70;43.00;;;;;;5011342;27;43607;-59
2022/03/26 01:40:51;;;;;;;11.82;10.73;;;20.70;42.90;;;;;;5000492;27;45292;-59
2022/03/26 01:43:20;;;;;;;11.70;10.57;;;20.70;43.00;;;;;;5010333;27;43775;-60
2022/03/26 01:45:48;;;;;;;11.63;10.43;;;20.70;43.00;;;;;;5023604;27;43465;-60
2022/03/26 01:48:15;;;;;;;11.43;10.32;;;20.70;43.00;;;;;;5013361;27;43568;-59
2022/03/26 01:50:43;;;;;;;12.85;10.95;;;20.70;43.10;;;;;;4997922;27;44716;-60
2022/03/26 01:53:10;;;;;;;11.48;10.40;;;20.70;43.10;;;;;;5010632;27;43964;-59
2022/03/26 01:55:38;;;;;;;12.85;11.65;;;20.70;43.10;;;;;;5024936;27;43447;-60
2022/03/26 01:58:06;;;;;;;13.05;11.73;;;20.60;43.00;;;;;;5007896;27;43490;-60
2022/03/26 02:00:34;;;;;;;12.65;11.43;;;20.60;43.10;;;;;;5009207;27;45013;-60
2022/03/26 02:03:03;;;;;;;12.35;11.15;;;20.60;43.00;;;;;;5008696;27;43537;-59
2022/03/26 02:05:32;;;;;;;12.60;11.40;;;20.60;43.00;;;;;;5025071;27;43400;-60
2022/03/26 02:07:59;;;;;;;12.85;11.55;;;20.60;43.10;;;;;;5005061;27;43517;-60
2022/03/26 02:10:27;;;;;;;12.63;11.43;;;20.60;43.00;;;;;;5009915;27;44968;-59
2022/03/26 02:12:54;;;;;;;12.50;11.30;;;20.60;43.10;;;;;;5015966;27;44345;-59
2022/03/26 02:15:22;;;;;;;12.75;11.45;;;20.60;43.00;;;;;;5016350;27;43584;-59
2022/03/26 02:17:49;;;;;;;12.60;11.40;;;20.60;43.10;;;;;;5001929;27;43557;-60
2022/03/26 02:20:17;;;;;;;11.98;10.77;;;20.50;43.00;;;;;;5009387;27;44031;-60
2022/03/26 02:22:44;;;;;;;12.27;11.07;;;20.50;43.00;;;;;;5006501;27;43684;-59
2022/03/26 02:25:12;;;;;;;11.73;10.60;;;20.50;43.10;;;;;;5016452;27;43520;-59
2022/03/26 02:27:40;;;;;;;11.98;10.82;;;20.50;43.10;;;;;;5011802;27;43584;-59
2022/03/26 02:30:08;;;;;;;12.57;11.38;;;20.50;43.10;;;;;;5009187;27;45304;-59
2022/03/26 02:32:35;;;;;;;12.27;11.07;;;20.50;43.00;;;;;;5010335;27;43498;-59
2022/03/26 02:35:04;;;;;;;11.88;10.70;;;20.50;43.00;;;;;;5017318;27;43495;-59
2022/03/26 02:37:32;;;;;;;12.48;11.18;;;20.50;43.10;;;;;;5037991;27;43633;-60
2022/03/26 02:40:04;;;;;;;12.65;11.27;;;20.50;43.10;;;;;;5009577;27;44915;-59
2022/03/26 02:42:33;;;;;;;12.75;11.45;;;20.50;43.10;;;;;;5010042;27;44185;-60
2022/03/26 02:45:01;;;;;;;12.43;11.23;;;20.40;43.00;;;;;;5012271;27;43481;-60
2022/03/26 02:47:29;;;;;;;13.40;12.10;;;20.40;43.10;;;;;;4998515;27;43477;-59
2022/03/26 02:49:56;;;;;;;12.57;11.27;;;20.40;43.10;;;;;;5010770;27;44997;-60
2022/03/26 02:52:24;;;;;;;12.60;11.40;;;20.40;43.10;;;;;;5014843;27;43950;-60
2022/03/26 02:54:52;;;;;;;12.02;10.82;;;20.40;43.10;;;;;;5023110;27;43510;-60
2022/03/26 02:57:20;;;;;;;12.63;11.32;;;20.40;43.20;;;;;;5006172;27;43561;-60
2022/03/26 02:59:47;;;;;;;14.10;12.60;;;20.40;43.20;;;;;;5010516;27;44041;-59
2022/03/26 03:02:15;;;;;;;12.55;11.32;;;20.40;43.20;;;;;;5015728;27;43465;-59
2022/03/26 03:04:42;;;;;;;13.18;11.77;;;20.40;43.10;;;;;;5011149;27;43989;-59
2022/03/26 03:07:10;;;;;;;12.75;11.45;;;20.30;43.10;;;;;;5005738;27;43514;-59
2022/03/26 03:09:37;;;;;;;12.48;11.27;;;20.30;43.10;;;;;;5011605;27;44978;-60
2022/03/26 03:12:06;;;;;;;12.40;11.20;;;20.30;43.10;;;;;;5005684;27;44354;-59
2022/03/26 03:14:37;;;;;;;13.52;12.13;;;20.30;43.20;;;;;;5006935;27;43428;-59
2022/03/26 03:17:05;;;;;;;12.52;11.32;;;20.30;43.10;;;;;;5006618;27;43541;-59
2022/03/26 03:19:32;;;;;;;12.60;11.40;;;20.30;43.20;;;;;;5012379;27;44922;-59
2022/03/26 03:22:00;;;;;;;12.93;11.70;;;20.30;43.20;;;;;;5013161;27;45078;-59
2022/03/26 03:24:28;;;;;;;13.23;11.80;;;20.20;43.10;;;;;;5014441;27;43587;-60
2022/03/26 03:26:55;;;;;;;12.10;10.90;;;20.20;43.20;;;;;;5007969;27;43536;-59
2022/03/26 03:29:22;;;;;;;11.70;10.57;;;20.20;43.20;;;;;;5013717;27;45070;-60
2022/03/26 03:31:50;;;;;;;12.50;11.30;;;20.20;43.20;;;;;;5007755;27;43979;-60
2022/03/26 03:34:18;;;;;;;12.48;11.18;;;20.20;43.20;;;;;;5011907;27;43453;-59
2022/03/26 03:36:45;;;;;;;12.85;11.55;;;20.20;43.20;;;;;;5007922;27;43526;-59
2022/03/26 03:39:13;;;;;;;12.50;11.30;;;20.20;43.20;;;;;;5014047;27;44981;-59
2022/03/26 03:41:41;;;;;;;13.10;11.82;;;20.20;43.20;;;;;;5004597;27;43494;-60
2022/03/26 03:44:10;;;;;;;12.63;11.32;;;20.20;43.20;;;;;;5011290;27;43434;-59
2022/03/26 03:46:37;;;;;;;13.57;12.18;;;20.20;43.20;;;;;;5009871;27;43425;-59
2022/03/26 03:49:05;;;;;;;12.95;11.68;;;20.20;43.20;;;;;;5009360;27;44113;-59
2022/03/26 03:51:32;;;;;;;12.13;10.90;;;20.20;43.20;;;;;;5017552;27;43558;-60
2022/03/26 03:54:00;;;;;;;12.18;10.90;;;20.10;43.20;;;;;;5010268;27;43469;-60
2022/03/26 03:56:27;;;;;;;12.60;11.32;;;20.10;43.10;;;;;;5013681;27;43628;-60
2022/03/26 03:58:56;;;;;;;12.60;11.30;;;20.10;43.10;;;;;;5010078;27;44035;-59
2022/03/26 04:01:23;;;;;;;11.85;10.65;;;20.10;43.10;;;;;;5023548;27;43994;-59
2022/03/26 04:03:51;;;;;;;12.30;10.95;;;20.10;43.10;;;;;;5018177;27;43404;-60
2022/03/26 04:06:19;;;;;;;11.57;10.38;;;20.10;43.20;;;;;;5014826;27;43579;-59
2022/03/26 04:08:48;;;;;;;11.73;10.57;;;20.10;43.20;;;;;;5002393;27;44978;-59
2022/03/26 04:11:15;;;;;;;11.60;10.50;;;20.10;43.10;;;;;;5023531;27;43579;-59
2022/03/26 04:13:46;;;;;;;11.40;10.20;;;20.10;43.20;;;;;;5008080;27;43453;-60
2022/03/26 04:16:14;;;;;;;11.80;10.68;;;20.00;43.20;;;;;;5007063;27;43544;-59
2022/03/26 04:18:41;;;;;;;11.88;10.68;;;20.00;43.20;;;;;;5008725;27;44689;-60
2022/03/26 04:21:09;;;;;;;11.88;10.77;;;20.00;43.20;;;;;;5021578;27;43481;-59
2022/03/26 04:23:36;;;;;;;11.40;10.27;;;20.00;43.20;;;;;;5024726;27;43422;-59
2022/03/26 04:26:04;;;;;;;10.88;9.77;;;20.00;43.20;;;;;;5005486;27;43692;-59
2022/03/26 04:28:31;;;;;;;12.00;10.88;;;20.00;43.20;;;;;;5011644;27;44033;-61
2022/03/26 04:30:59;;;;;;;10.82;9.63;;;20.00;43.20;;;;;;5017216;27;43960;-59
2022/03/26 04:33:27;;;;;;;12.05;10.85;;;19.90;43.20;;;;;;5010804;27;43829;-62
2022/03/26 04:35:55;;;;;;;11.80;10.70;;;20.00;43.20;;;;;;5011221;27;43617;-62
2022/03/26 04:38:22;;;;;;;12.65;11.27;;;19.90;43.10;;;;;;5011398;27;44963;-62
2022/03/26 04:40:50;;;;;;;12.05;10.85;;;19.90;43.10;;;;;;5024912;27;43456;-62
2022/03/26 04:43:23;;;;;;;11.80;10.70;;;19.90;43.20;;;;;;5012328;27;43489;-62
2022/03/26 04:45:51;;;;;;;11.88;10.77;;;19.90;43.20;;;;;;5002811;27;43529;-62
2022/03/26 04:48:18;;;;;;;11.32;10.23;;;19.90;43.20;;;;;;5009848;27;44986;-61
2022/03/26 04:50:46;;;;;;;11.75;10.55;;;19.90;43.20;;;;;;5024097;27;43358;-62
2022/03/26 04:53:13;;;;;;;12.93;11.63;;;19.90;43.20;;;;;;5015685;27;43398;-62
2022/03/26 04:55:41;;;;;;;11.85;10.75;;;19.90;43.20;;;;;;4998425;27;43603;-62
2022/03/26 04:58:09;;;;;;;11.98;10.88;;;19.80;43.20;;;;;;5011151;27;44066;-61
2022/03/26 05:00:37;;;;;;;12.10;10.88;;;19.80;43.20;;;;;;5024978;27;43591;-62
2022/03/26 05:03:04;;;;;;;11.70;10.50;;;19.80;43.10;;;;;;5008772;27;43495;-62
2022/03/26 05:05:32;;;;;;;11.52;10.32;;;19.80;43.10;;;;;;5008901;27;43541;-62
2022/03/26 05:07:59;;;;;;;11.40;10.30;;;19.80;43.20;;;;;;5010341;27;44085;-62
2022/03/26 05:10:28;;;;;;;11.52;10.32;;;19.80;43.10;;;;;;5014372;27;43471;-62
2022/03/26 05:13:01;;;;;;;11.82;10.63;;;19.80;43.20;;;;;;5005174;27;43409;-63
2022/03/26 05:15:29;;;;;;;12.02;10.80;;;19.80;43.20;;;;;;5014937;27;43593;-62
2022/03/26 05:17:57;;;;;;;11.43;10.32;;;19.80;43.20;;;;;;5019672;27;45130;-62
2022/03/26 05:20:25;;;;;;;11.95;10.68;;;19.70;43.20;;;;;;5026759;27;43475;-62
2022/03/26 05:22:53;;;;;;;11.18;10.07;;;19.70;43.20;;;;;;5005787;27;43465;-62
2022/03/26 05:25:21;;;;;;;11.07;9.98;;;19.70;43.20;;;;;;5016761;27;43589;-62
2022/03/26 05:27:51;;;;;;;11.00;9.95;;;19.70;43.20;;;;;;5019839;27;44976;-61
2022/03/26 05:30:20;;;;;;;11.60;10.45;;;19.70;43.20;;;;;;5021260;27;43504;-62
2022/03/26 05:32:48;;;;;;;11.23;10.13;;;19.70;43.20;;;;;;5016962;27;43430;-62
2022/03/26 05:35:16;;;;;;;11.25;10.15;;;19.70;43.20;;;;;;5016549;27;43663;-61
2022/03/26 05:37:45;;;;;;;10.85;9.75;;;19.70;43.20;;;;;;5023928;27;44045;-62
2022/03/26 05:40:16;;;;;;;11.27;10.18;;;19.60;43.10;;;;;;5010533;27;43440;-62
2022/03/26 05:42:45;;;;;;;10.30;9.30;;;19.60;43.20;;;;;;5017022;27;43547;-61
2022/03/26 05:45:12;;;;;;;11.27;10.18;;;19.70;43.20;;;;;;5011535;27;44030;-62
2022/03/26 05:47:41;;;;;;;10.52;9.52;;;19.70;43.30;;;;;;5028954;27;44954;-62
2022/03/26 05:50:12;;;;;;;10.35;9.35;;;19.70;43.20;;;;;;5011100;27;43648;-62
2022/03/26 05:52:39;;;;;;;10.45;9.45;;;19.60;43.20;;;;;;5017057;27;43522;-62
2022/03/26 05:55:08;;;;;;;11.48;10.35;;;19.60;43.20;;;;;;5016540;27;43603;-61
2022/03/26 05:57:35;;;;;;;9.60;8.70;;;19.60;43.20;;;;;;5023889;27;44043;-63
2022/03/26 06:00:04;;;;;;;10.77;9.75;;;19.60;43.30;;;;;;5006908;27;43942;-61
2022/03/26 06:02:34;;;;;;;9.67;8.77;;;19.60;43.30;;;;;;5008794;27;43567;-62
2022/03/26 06:05:02;;;;;;;10.52;9.52;;;19.60;43.30;;;;;;5011903;27;43985;-61
2022/03/26 06:07:30;;;;;;;8.85;8.05;;;19.50;43.30;;;;;;5020437;27;44928;-61
2022/03/26 06:09:57;;;;;;;9.80;8.82;;;19.50;43.30;;;;;;5006820;27;43473;-61
2022/03/26 06:12:25;;;;;;;9.95;8.45;;;19.50;44.00;;;;;;5011026;27;43500;-60
2022/03/26 06:14:52;;;;;;;10.20;9.20;;;19.50;43.30;;;;;;5006313;27;43582;-60
2022/03/26 06:17:22;;;;;;;9.15;8.35;;;19.50;43.30;;;;;;5021940;27;44417;-60
2022/03/26 06:19:49;;;;;;;9.15;8.25;;;19.50;44.00;;;;;;5006373;27;44022;-60
2022/03/26 06:22:17;;;;;;;9.48;8.57;;;19.50;43.30;;;;;;5010477;27;43444;-60
2022/03/26 06:24:44;;;;;;;9.30;8.40;;;19.50;43.40;;;;;;5003282;27;44093;-60
2022/03/26 06:27:12;;;;;;;9.45;8.55;;;19.50;43.40;;;;;;5007240;27;45114;-60
2022/03/26 06:29:39;;;;;;;10.50;9.40;;;19.50;43.40;;;;;;5006331;27;43965;-61
2022/03/26 06:32:07;;;;;;;8.70;7.90;;;19.40;43.30;;;;;;5012076;27;43405;-60
2022/03/26 06:34:35;;;;;;;9.55;8.48;;;19.40;43.50;;;;;;5012970;27;43606;-60
2022/03/26 06:37:03;;;;;;;8.82;7.93;;;19.40;43.50;;;;;;5007305;27;44965;-60
2022/03/26 06:39:30;;;;;;;8.90;8.10;;;19.40;43.50;;;;;;5053205;27;43476;-60
2022/03/26 06:41:58;;;;;;;9.85;8.40;;;19.40;43.50;;;;;;5092933;27;43458;-60
2022/03/26 06:44:25;;;;;;;9.57;8.60;;;19.40;43.60;;;;;;5073489;27;43603;-60
2022/03/26 06:46:53;;;;;;;10.07;8.93;;;19.40;43.60;;;;;;5067801;27;44056;-60
2022/03/26 06:49:20;;;;;;;9.75;8.75;;;19.40;43.70;;;;;;5054592;27;43997;-60
2022/03/26 06:51:48;;;;;;;9.45;8.50;;;19.40;43.60;;;;;;5061472;27;43508;-60
2022/03/26 06:54:17;;;;;;;9.55;8.52;;;19.40;43.70;;;;;;5100565;27;43678;-60
2022/03/26 06:56:44;;;;;;;9.73;8.68;;;19.40;43.80;;;;;;5067676;27;44985;-60
2022/03/26 06:59:16;;;;;;;9.77;8.32;;;19.40;43.80;;;;;;5055394;27;43682;-60
2022/03/26 07:01:45;;;;;;;9.10;8.20;;;19.40;43.80;;;;;;5112786;27;43445;-60
2022/03/26 07:04:17;;;;;;;9.48;8.18;;;19.40;43.80;;;;;;5090604;27;43524;-60
2022/03/26 07:06:45;;;;;;;9.70;8.80;;;19.40;43.80;;;;;;5062316;27;44050;-60
2022/03/26 07:09:12;;;;;;;9.23;8.32;;;19.40;43.80;;;;;;5053319;27;43983;-60
2022/03/26 07:11:40;;;;;;;9.60;8.70;;;19.40;43.80;;;;;;5101532;27;43468;-60
2022/03/26 07:14:07;;;;;;;8.77;7.88;;;19.40;43.90;;;;;;5082715;27;43575;-60
2022/03/26 07:16:38;;;;;;;9.30;8.13;;;19.40;43.90;;;;;;5054188;27;44056;-60
2022/03/26 07:19:05;;;;;;;9.07;8.18;;;19.40;43.90;;;;;;5048610;27;43473;-60
2022/03/26 07:21:33;;;;;;;9.20;8.30;;;19.40;44.60;;;;;;5100796;27;43980;-60
2022/03/26 07:24:01;;;;;;;9.07;8.18;;;19.40;43.80;;;;;;5094710;27;43470;-60
2022/03/26 07:26:28;;;;;;;9.02;8.13;;;19.40;43.90;;;;;;5048488;27;44057;-60
2022/03/26 07:28:56;;;;;;;10.60;8.68;;;19.40;43.90;;;;;;5089253;27;44228;-60
2022/03/26 07:31:24;;;;;;;8.60;7.70;;;19.40;43.90;;;;;;5100237;27;43417;-58
2022/03/26 07:33:51;;;;;;;8.82;7.82;;;19.40;43.90;;;;;;5051352;27;43490;-60
2022/03/26 07:36:19;;;;;;;9.63;8.02;;;19.40;43.90;;;;;;5045203;27;43987;-59
2022/03/26 07:38:46;;;;;;;8.50;7.60;;;19.50;44.70;;;;;;5089033;27;43495;-60
2022/03/26 07:41:14;;;;;;;9.23;8.13;;;19.50;44.10;;;;;;5100259;27;43398;-60
2022/03/26 07:43:42;;;;;;;8.90;8.00;;;19.60;44.00;;;;;;5054534;27;43656;-61
2022/03/26 07:46:10;;;;;;;8.68;7.65;;;19.60;43.90;;;;;;5072410;27;44065;-60
2022/03/26 07:48:38;;;;;;;10.13;9.13;;;19.70;43.90;;;;;;5091248;27;44166;-59
2022/03/26 07:51:05;;;;;;;9.18;8.20;;;19.80;43.90;;;;;;5099105;27;43433;-60
2022/03/26 07:53:33;;;;;;;11.55;8.50;;;19.90;43.80;;;;;;5033353;27;43577;-61
2022/03/26 07:56:00;;;;;;;9.55;8.30;;;20.00;43.80;;;;;;5038379;27;43984;-60
2022/03/26 07:58:28;;;;;;;8.35;7.55;;;20.20;43.70;;;;;;5043442;27;43574;-61
2022/03/26 08:00:55;;;;;;;10.32;8.10;;;20.30;43.60;;;;;;5045806;27;44018;-61
2022/03/26 08:03:24;;;;;;;8.70;7.80;;;20.50;43.50;;;;;;5052771;27;43502;-61
2022/03/26 08:05:52;;;;;;;9.13;8.13;;;20.60;43.50;;;;;;5044353;27;43806;-60
2022/03/26 08:08:20;;;;;;;8.30;7.35;;;20.70;43.20;;;;;;5047881;27;44015;-60
2022/03/26 08:10:49;;;;;;;7.80;7.10;;;20.80;43.10;;;;;;5042617;27;43680;-61
2022/03/26 08:13:17;;;;;;;8.98;8.15;;;21.00;43.00;;;;;;5040118;27;43677;-60
2022/03/26 08:15:51;;;;;;;9.43;7.72;;;21.10;43.00;;;;;;5034386;27;44702;-60
2022/03/26 08:18:19;;;;;;;10.13;7.18;;;21.30;43.00;;;;;;5060044;27;43402;-60
2022/03/26 08:20:46;;;;;;;7.50;6.65;;;21.40;42.80;;;;;;5034000;27;43930;-60
2022/03/26 08:23:14;;;;;;;8.15;7.35;;;21.60;42.80;;;;;;5035387;27;43660;-61
2022/03/26 08:28:29;;;;;;;6.93;6.15;;;22.00;42.60;;;;;;5046929;27;44381;-61
2022/03/26 08:30:56;;;;;;;7.70;6.72;;;22.20;42.50;;;;;;5033976;27;43490;-60
2022/03/26 08:33:24;;;;;;;6.40;5.80;;;22.30;42.10;;;;;;5049944;27;43664;-61
2022/03/26 08:35:51;;;;;;;7.65;6.80;;;22.40;41.80;;;;;;5044651;27;44083;-60
2022/03/26 08:38:19;;;;;;;7.13;6.40;;;22.50;41.70;;;;;;5056340;27;44039;-60
2022/03/26 08:40:48;;;;;;;7.00;6.20;;;22.70;41.60;;;;;;5038275;28;43483;-60
2022/03/26 08:43:16;;;;;;;6.88;6.18;;;22.80;41.50;;;;;;5052970;27;43506;-60
2022/03/26 08:45:45;;;;;;;6.72;5.78;;;22.90;41.40;;;;;;5053995;27;44034;-63
2022/03/26 08:48:14;;;;;;;6.03;5.43;;;23.00;41.60;;;;;;5039226;27;44045;-60
2022/03/26 08:50:43;;;;;;;6.30;5.70;;;23.10;41.20;;;;;;5031781;27;43428;-60
2022/03/26 08:53:11;;;;;;;9.57;6.20;;;23.20;41.30;;;;;;5037600;27;43647;-58
2022/03/26 08:55:39;;;;;;;5.60;5.10;;;23.20;41.50;;;;;;5046542;27;45286;-60
2022/03/26 08:58:07;;;;;;;7.95;5.75;;;23.30;41.70;;;;;;5074360;27;44106;-59
2022/03/26 09:00:35;;;;;;;9.55;5.50;;;23.40;41.70;;;;;;5048081;27;43473;-63
2022/03/26 09:03:03;;;;;;;9.70;5.18;;;23.40;41.60;;;;;;5038192;27;43528;-61
2022/03/26 09:05:31;;;;;;;6.22;5.03;;;23.50;41.60;;;;;;5082285;27;44040;-61
2022/03/26 09:07:59;;;;;;;8.30;5.75;;;23.70;41.30;;;;;;5048356;27;44001;-60
2022/03/26 09:10:26;;;;;;;7.55;5.50;;;23.80;41.30;;;;;;5078751;27;43516;-60
2022/03/26 09:12:54;;;;;;;7.70;5.20;;;23.90;41.30;;;;;;5040591;27;43668;-62
2022/03/26 09:15:22;;;;;;;5.75;4.95;;;24.00;41.40;;;;;;5055114;27;44958;-61
2022/03/26 09:17:49;;;;;;;8.38;5.43;;;24.10;41.20;;;;;;5037937;27;43542;-61
2022/03/26 09:20:17;;;;;;;6.50;5.25;;;24.20;41.00;;;;;;5036624;27;43438;-61
2022/03/26 09:22:44;;;;;;;5.43;4.60;;;24.30;40.90;;;;;;5080158;27;43479;-62
2022/03/26 09:25:13;;;;;;;10.10;6.25;;;24.40;40.80;;;;;;5051129;27;44984;-61
2022/03/26 09:27:41;;;;;;;6.97;5.07;;;24.40;41.30;;;;;;5050998;27;43974;-62
2022/03/26 09:30:09;;;;;;;5.30;4.75;;;24.50;40.60;;;;;;5038129;27;43442;-63
2022/03/26 09:32:37;;;;;;;5.53;4.85;;;24.60;40.70;;;;;;5069704;27;43572;-61
2022/03/26 09:35:04;;;;;;;5.82;4.38;;;24.70;40.50;;;;;;5055974;27;44026;-62
2022/03/26 09:37:32;;;;;;;5.00;3.97;;;24.70;40.40;;;;;;5049969;27;43995;-60
2022/03/26 09:40:02;;;;;;;4.45;4.10;;;24.80;40.50;;;;;;5034311;27;43505;-62
2022/03/26 09:42:31;;;;;;;5.77;4.57;;;24.90;40.50;;;;;;5040272;27;43618;-62
2022/03/26 09:44:59;;;;;;;4.43;4.00;;;24.90;40.30;;;;;;5037632;27;44942;-62
2022/03/26 09:47:26;;;;;;;5.55;4.28;;;24.90;40.30;;;;;;5050419;27;43512;-62
2022/03/26 09:49:54;;;;;;;4.35;3.95;;;25.00;40.20;;;;;;5037294;27;43442;-62
2022/03/26 09:52:22;;;;;;;4.13;3.72;;;25.00;40.20;;;;;;5037673;27;43568;-62
2022/03/26 09:54:50;;;;;;;4.50;4.10;;;25.10;40.20;;;;;;5062151;27;44973;-61
2022/03/26 09:57:18;;;;;;;5.13;3.53;;;25.10;40.10;;;;;;5036624;28;43512;-61
2022/03/26 09:59:45;;;;;;;4.30;3.90;;;25.10;40.10;;;;;;5054561;27;43439;-62
2022/03/26 10:02:13;;;;;;;7.47;5.15;;;25.20;40.20;;;;;;5055240;27;43612;-62
2022/03/26 10:04:41;;;;;;;8.05;4.40;;;25.20;40.00;;;;;;5053347;27;44141;-61
2022/03/26 10:07:10;;;;;;;4.65;4.13;;;25.10;40.00;;;;;;5061288;27;43689;-62
2022/03/26 10:09:45;;;;;;;5.20;3.70;;;25.20;40.10;;;;;;5038345;27;43502;-61
2022/03/26 10:12:17;;;;;;;7.10;3.45;;;25.20;40.10;;;;;;5047501;27;43557;-62
2022/03/26 10:14:52;;;;;;;4.75;3.60;;;25.20;40.20;;;;;;5044841;27;45015;-61
2022/03/26 10:17:40;;;;;;;4.65;3.63;;;25.10;40.10;;;;;;5037805;27;43451;-62
2022/03/26 10:20:13;;;;;;;3.95;3.55;;;25.10;40.10;;;;;;5074893;27;44112;-61
2022/03/26 10:22:51;;;;;;;4.32;3.90;;;25.10;40.20;;;;;;5043986;27;43600;-62
2022/03/26 10:25:21;;;;;;;3.80;3.40;;;25.10;40.30;;;;;;5075067;27;44048;-61
2022/03/26 10:27:55;;;;;;;4.20;3.38;;;25.00;40.40;;;;;;5040015;27;43991;-61
2022/03/26 10:33:28;;;;;;;4.20;2.75;;;24.90;40.50;;;;;;5048434;27;43545;-61
2022/03/26 10:36:01;;;;;;;3.40;3.10;;;24.90;40.60;;;;;;5109735;27;44741;-61
2022/03/26 10:38:34;;;;;;;5.43;3.10;;;24.90;40.70;;;;;;5099002;27;43545;-61
2022/03/26 10:41:07;;;;;;;3.10;2.70;;;24.80;40.70;;;;;;5043076;27;43465;-61
2022/03/26 10:43:41;;;;;;;3.50;2.90;;;24.80;40.80;;;;;;5047193;27;43517;-62
2022/03/26 10:46:09;;;;;;;3.67;3.25;;;24.80;40.90;;;;;;5050842;27;44030;-61
2022/03/26 10:48:38;;;;;;;3.70;2.85;;;24.80;41.00;;;;;;5041250;27;43516;-61
2022/03/26 10:51:15;;;;;;;4.20;2.70;;;24.70;41.00;;;;;;5042009;27;43421;-62
2022/03/26 10:53:46;;;;;;;3.85;2.58;;;24.70;41.00;;;;;;5055285;27;43732;-62
2022/03/26 10:56:15;;;;;;;2.60;2.40;;;24.70;41.10;;;;;;5095614;27;43917;-62
2022/03/26 10:58:46;;;;;;;3.00;2.70;;;24.70;41.20;;;;;;5034663;27;43508;-61
2022/03/26 11:01:13;;;;;;;3.00;2.70;;;24.70;41.80;;;;;;5094592;27;43508;-62
2022/03/26 11:03:42;;;;;;;2.95;2.65;;;24.70;41.20;;;;;;5041646;27;43536;-61
2022/03/26 11:06:10;;;;;;;4.28;2.60;;;24.70;41.20;;;;;;5061272;27;44733;-61
2022/03/26 11:08:41;;;;;;;3.17;2.70;;;24.60;41.30;;;;;;5036521;27;43560;-62
2022/03/26 11:11:10;;;;;;;3.10;2.80;;;24.60;41.30;;;;;;5042441;27;43502;-61
2022/03/26 11:13:45;;;;;;;3.67;2.90;;;24.60;41.30;;;;;;5036706;27;43636;-62
2022/03/26 11:16:41;;;;;;;3.67;2.70;;;24.60;41.30;;;;;;5037317;27;44049;-61
2022/03/26 11:19:26;;;;;;;3.30;2.85;;;24.60;41.40;;;;;;5042728;27;43478;-61
2022/03/26 11:22:00;;;;;;;3.00;2.63;;;24.60;41.40;;;;;;5033083;27;43471;-61
2022/03/26 11:24:40;;;;;;;3.90;2.70;;;24.50;41.50;;;;;;5040398;27;43559;-61
2022/03/26 11:27:07;;;;;;;3.28;2.97;;;24.50;41.60;;;;;;5071095;27;44095;-61
2022/03/26 11:29:44;;;;;;;3.00;2.70;;;24.50;41.60;;;;;;5050678;27;43512;-61
2022/03/26 11:32:17;;;;;;;3.40;2.90;;;24.50;41.60;;;;;;5041183;27;43491;-62
2022/03/26 11:34:46;;;;;;;4.30;3.00;;;24.40;41.60;;;;;;5039986;27;43537;-62
2022/03/26 11:37:22;;;;;;;3.47;2.70;;;24.40;41.60;;;;;;5039284;27;44060;-61
2022/03/26 11:39:56;;;;;;;3.50;2.88;;;24.40;41.60;;;;;;5038348;27;43407;-61
2022/03/26 11:42:35;;;;;;;3.60;3.03;;;24.40;41.60;;;;;;5041488;27;43407;-62
2022/03/26 11:51:16;;;;;;;3.30;2.90;;;24.30;41.80;;;;;;5049436;27;43552;-61
2022/03/26 11:53:44;;;;;;;4.10;3.00;;;24.30;41.90;;;;;;5037138;27;43432;-61
2022/03/26 11:56:28;;;;;;;3.25;2.63;;;24.30;42.00;;;;;;5036227;27;44056;-62
2022/03/26 11:59:17;;;;;;;3.33;3.00;;;24.30;42.10;;;;;;5062380;27;44063;-61
2022/03/26 12:01:49;;;;;;;3.30;2.72;;;24.20;42.70;;;;;;5038210;27;43760;-61
2022/03/26 12:04:25;;;;;;;2.95;2.65;;;24.20;42.10;;;;;;5034764;27;43525;-62
2022/03/26 12:06:59;;;;;;;4.28;3.35;;;24.20;42.10;;;;;;5040232;27;43468;-62
2022/03/26 12:09:38;;;;;;;3.10;2.65;;;24.20;42.00;;;;;;5082376;27;44162;-61
2022/03/26 12:12:08;;;;;;;3.15;2.80;;;24.20;42.10;;;;;;5044963;27;43430;-61
2022/03/26 12:15:01;;;;;;;3.08;2.67;;;24.20;42.10;;;;;;5038453;27;43540;-61
2022/03/26 12:17:45;;;;;;;3.25;2.67;;;24.20;42.20;;;;;;5036278;27;43579;-63
2022/03/26 12:20:45;;;;;;;3.92;2.78;;;24.20;42.20;;;;;;5057482;27;44055;-62
2022/03/26 12:23:28;;;;;;;2.72;2.50;;;24.20;42.20;;;;;;5050477;27;43505;-62
2022/03/26 12:26:01;;;;;;;3.45;2.55;;;24.10;42.30;;;;;;5031673;27;43408;-61
2022/03/26 12:28:29;;;;;;;2.88;2.58;;;24.10;42.20;;;;;;5073405;27;43575;-62
2022/03/26 12:30:59;;;;;;;2.95;2.45;;;24.10;42.30;;;;;;5038714;27;44965;-62
2022/03/26 12:33:27;;;;;;;;;;;24.10;42.30;;;;;;5048717;27;43497;-62
2022/03/26 12:35:55;;;;;;;2.47;2.28;;;24.10;42.40;;;;;;5037787;27;43520;-62
2022/03/26 12:38:28;;;;;;;2.53;2.33;;;24.10;42.40;;;;;;5040073;27;43643;-62
2022/03/26 12:40:58;;;;;;;2.75;2.30;;;24.10;42.40;;;;;;5038097;27;44950;-61
2022/03/26 12:43:27;;;;;;;2.70;2.50;;;24.10;42.40;;;;;;5059000;27;44654;-61
2022/03/26 12:45:57;;;;;;;3.28;2.97;;;24.10;42.40;;;;;;5040756;27;43592;-61
2022/03/26 12:48:28;;;;;;;3.22;2.38;;;24.10;42.40;;;;;;5039675;27;43540;-61
2022/03/26 12:51:05;;;;;;;3.53;2.30;;;24.10;42.50;;;;;;5040510;27;44148;-61
2022/03/26 12:53:37;;;;;;;4.13;2.70;;;24.10;42.50;;;;;;5043929;27;44036;-61
2022/03/26 12:56:10;;;;;;;2.35;2.15;;;24.10;42.50;;;;;;5043269;27;43470;-61
2022/03/26 12:58:56;;;;;;;2.78;2.58;;;24.10;42.50;;;;;;5041304;27;43529;-61
2022/03/26 13:01:25;;;;;;;2.97;2.10;;;24.00;42.50;;;;;;5046898;27;43790;-61